sensor_id;sensor_type;location;lat;lon;timestamp;pressure;altitude;pressure_sealevel;temperature;humidity
11223;BME280;5668;52.012;8.724;2023-01-19T00:00:04;98658.22;;;2.80;85.26
11223;BME280;5668;52.012;8.724;2023-01-19T00:02:33;98652.28;;;2.80;84.98
11223;BME280;5668;52.012;8.724;2023-01-19T00:05:00;98659.06;;;2.81;84.38
11223;BME280;5668;52.012;8.724;2023-01-19T00:07:31;98655.38;;;2.85;85.08
11223;BME280;5668;52.012;8.724;2023-01-19T00:09:58;98653.31;;;2.90;84.65
11223;BME280;5668;52.012;8.724;2023-01-19T00:12:26;98660.94;;;2.91;85.50
11223;BME280;5668;52.012;8.724;2023-01-19T00:14:53;98659.19;;;2.92;84.81
11223;BME280;5668;52.012;8.724;2023-01-19T00:17:20;98652.72;;;3.24;84.16
11223;BME280;5668;52.012;8.724;2023-01-19T00:19:47;98657.25;;;3.08;84.55
11223;BME280;5668;52.012;8.724;2023-01-19T00:22:15;98656.81;;;3.01;84.55
11223;BME280;5668;52.012;8.724;2023-01-19T00:24:43;98653.56;;;2.99;84.69
11223;BME280;5668;52.012;8.724;2023-01-19T00:27:11;98649.63;;;2.94;84.41
11223;BME280;5668;52.012;8.724;2023-01-19T00:29:38;98652.31;;;2.92;85.15
11223;BME280;5668;52.012;8.724;2023-01-19T00:32:05;98658.28;;;2.93;84.94
11223;BME280;5668;52.012;8.724;2023-01-19T00:34:33;98643.78;;;2.92;85.55
11223;BME280;5668;52.012;8.724;2023-01-19T00:37:04;98641.41;;;2.89;86.47
11223;BME280;5668;52.012;8.724;2023-01-19T00:39:31;98631.97;;;2.89;85.28
11223;BME280;5668;52.012;8.724;2023-01-19T00:42:00;98631.91;;;2.91;85.52
11223;BME280;5668;52.012;8.724;2023-01-19T00:44:45;98627.16;;;2.85;85.95
11223;BME280;5668;52.012;8.724;2023-01-19T00:47:12;98627.03;;;2.86;87.00
11223;BME280;5668;52.012;8.724;2023-01-19T00:49:46;98626.03;;;2.89;85.99
11223;BME280;5668;52.012;8.724;2023-01-19T00:52:13;98621.09;;;2.86;86.78
11223;BME280;5668;52.012;8.724;2023-01-19T00:54:40;98624.38;;;2.88;87.35
11223;BME280;5668;52.012;8.724;2023-01-19T00:57:09;98624.38;;;2.88;87.00
11223;BME280;5668;52.012;8.724;2023-01-19T00:59:36;98626.66;;;2.92;86.83
11223;BME280;5668;52.012;8.724;2023-01-19T01:02:03;98625.03;;;2.91;86.38
11223;BME280;5668;52.012;8.724;2023-01-19T01:04:30;98631.25;;;2.87;87.33
11223;BME280;5668;52.012;8.724;2023-01-19T01:06:58;98633.81;;;2.87;87.58
11223;BME280;5668;52.012;8.724;2023-01-19T01:09:25;98628.69;;;2.87;87.70
11223;BME280;5668;52.012;8.724;2023-01-19T01:11:52;98635.78;;;2.84;87.80
11223;BME280;5668;52.012;8.724;2023-01-19T01:14:21;98628.28;;;2.81;86.90
11223;BME280;5668;52.012;8.724;2023-01-19T01:16:50;98634.44;;;2.78;86.82
11223;BME280;5668;52.012;8.724;2023-01-19T01:19:17;98641.09;;;2.81;87.86
11223;BME280;5668;52.012;8.724;2023-01-19T01:21:44;98629.00;;;2.83;87.59
11223;BME280;5668;52.012;8.724;2023-01-19T01:24:12;98628.09;;;2.84;87.54
11223;BME280;5668;52.012;8.724;2023-01-19T01:26:39;98628.50;;;2.78;87.19
11223;BME280;5668;52.012;8.724;2023-01-19T01:29:06;98624.97;;;2.79;87.53
11223;BME280;5668;52.012;8.724;2023-01-19T01:31:35;98618.09;;;2.79;88.34
11223;BME280;5668;52.012;8.724;2023-01-19T01:34:02;98628.28;;;2.81;87.42
11223;BME280;5668;52.012;8.724;2023-01-19T01:36:29;98637.81;;;2.79;88.39
11223;BME280;5668;52.012;8.724;2023-01-19T01:38:58;98631.75;;;2.80;87.69
11223;BME280;5668;52.012;8.724;2023-01-19T01:41:26;98636.69;;;2.83;88.14
11223;BME280;5668;52.012;8.724;2023-01-19T01:43:54;98641.84;;;2.83;88.51
11223;BME280;5668;52.012;8.724;2023-01-19T01:46:25;98644.50;;;2.81;88.65
11223;BME280;5668;52.012;8.724;2023-01-19T01:48:59;98650.25;;;2.85;88.60
11223;BME280;5668;52.012;8.724;2023-01-19T01:51:31;98651.25;;;2.82;87.43
11223;BME280;5668;52.012;8.724;2023-01-19T01:54:11;98652.09;;;2.83;88.49
11223;BME280;5668;52.012;8.724;2023-01-19T01:56:44;98644.31;;;2.84;88.71
11223;BME280;5668;52.012;8.724;2023-01-19T01:59:14;98658.78;;;2.85;88.55
11223;BME280;5668;52.012;8.724;2023-01-19T02:01:50;98654.56;;;2.84;88.07
11223;BME280;5668;52.012;8.724;2023-01-19T02:04:38;98651.88;;;2.86;87.45
11223;BME280;5668;52.012;8.724;2023-01-19T02:07:06;98650.66;;;2.91;88.13
11223;BME280;5668;52.012;8.724;2023-01-19T02:09:51;98645.44;;;2.93;87.97
11223;BME280;5668;52.012;8.724;2023-01-19T02:12:35;98647.19;;;2.92;88.34
11223;BME280;5668;52.012;8.724;2023-01-19T02:15:20;98653.31;;;2.90;88.05
11223;BME280;5668;52.012;8.724;2023-01-19T02:17:48;98644.50;;;2.94;87.93
11223;BME280;5668;52.012;8.724;2023-01-19T02:20:19;98649.84;;;2.91;88.37
11223;BME280;5668;52.012;8.724;2023-01-19T02:22:49;98644.31;;;2.97;89.36
11223;BME280;5668;52.012;8.724;2023-01-19T02:25:19;98645.75;;;3.01;88.10
11223;BME280;5668;52.012;8.724;2023-01-19T02:27:47;98653.34;;;3.02;88.43
11223;BME280;5668;52.012;8.724;2023-01-19T02:30:15;98648.75;;;3.07;88.26
11223;BME280;5668;52.012;8.724;2023-01-19T02:32:43;98651.31;;;3.07;88.54
11223;BME280;5668;52.012;8.724;2023-01-19T02:35:12;98648.63;;;3.09;88.62
11223;BME280;5668;52.012;8.724;2023-01-19T02:37:40;98648.44;;;3.12;88.10
11223;BME280;5668;52.012;8.724;2023-01-19T02:40:12;98653.38;;;3.15;88.40
11223;BME280;5668;52.012;8.724;2023-01-19T02:42:45;98649.16;;;3.14;88.98
11223;BME280;5668;52.012;8.724;2023-01-19T02:45:17;98654.78;;;3.19;88.70
11223;BME280;5668;52.012;8.724;2023-01-19T02:47:47;98651.91;;;3.24;88.62
11223;BME280;5668;52.012;8.724;2023-01-19T02:50:38;98651.31;;;3.20;88.02
11223;BME280;5668;52.012;8.724;2023-01-19T02:53:26;98651.50;;;3.17;88.98
11223;BME280;5668;52.012;8.724;2023-01-19T02:56:03;98651.22;;;3.22;89.01
11223;BME280;5668;52.012;8.724;2023-01-19T02:58:39;98647.59;;;3.24;89.64
11223;BME280;5668;52.012;8.724;2023-01-19T03:01:17;98654.28;;;3.27;88.44
11223;BME280;5668;52.012;8.724;2023-01-19T03:03:52;98642.69;;;3.21;88.74
11223;BME280;5668;52.012;8.724;2023-01-19T03:06:30;98642.69;;;3.21;89.85
11223;BME280;5668;52.012;8.724;2023-01-19T03:09:02;98638.47;;;3.20;89.96
11223;BME280;5668;52.012;8.724;2023-01-19T03:11:33;98635.72;;;3.23;90.05
11223;BME280;5668;52.012;8.724;2023-01-19T03:14:09;98630.59;;;3.23;89.05
11223;BME280;5668;52.012;8.724;2023-01-19T03:16:41;98631.19;;;3.27;89.43
11223;BME280;5668;52.012;8.724;2023-01-19T03:19:13;98617.63;;;3.25;89.68
11223;BME280;5668;52.012;8.724;2023-01-19T03:21:45;98628.53;;;3.28;88.94
11223;BME280;5668;52.012;8.724;2023-01-19T03:24:15;98626.78;;;3.29;88.92
11223;BME280;5668;52.012;8.724;2023-01-19T03:26:46;98627.59;;;3.29;89.33
11223;BME280;5668;52.012;8.724;2023-01-19T03:29:18;98625.72;;;3.31;89.25
11223;BME280;5668;52.012;8.724;2023-01-19T03:31:48;98636.94;;;3.30;89.21
11223;BME280;5668;52.012;8.724;2023-01-19T03:34:18;98641.03;;;3.33;88.98
11223;BME280;5668;52.012;8.724;2023-01-19T03:36:49;98628.28;;;3.31;90.11
11223;BME280;5668;52.012;8.724;2023-01-19T03:39:21;98633.88;;;3.38;89.28
11223;BME280;5668;52.012;8.724;2023-01-19T03:41:51;98639.59;;;3.41;89.15
11223;BME280;5668;52.012;8.724;2023-01-19T03:44:23;98635.91;;;3.45;89.31
11223;BME280;5668;52.012;8.724;2023-01-19T03:46:53;98635.38;;;3.40;89.71
11223;BME280;5668;52.012;8.724;2023-01-19T03:49:20;98634.25;;;3.44;88.80
11223;BME280;5668;52.012;8.724;2023-01-19T03:51:48;98642.78;;;3.45;89.55
11223;BME280;5668;52.012;8.724;2023-01-19T03:54:15;98634.47;;;3.41;88.75
11223;BME280;5668;52.012;8.724;2023-01-19T03:56:42;98635.38;;;3.40;89.38
11223;BME280;5668;52.012;8.724;2023-01-19T03:59:10;98632.63;;;3.43;89.34
11223;BME280;5668;52.012;8.724;2023-01-19T04:01:38;98633.22;;;3.47;89.25
11223;BME280;5668;52.012;8.724;2023-01-19T04:04:06;98634.75;;;3.49;88.81
11223;BME280;5668;52.012;8.724;2023-01-19T04:06:33;98642.28;;;3.53;89.25
11223;BME280;5668;52.012;8.724;2023-01-19T04:09:00;98642.38;;;3.51;89.13
11223;BME280;5668;52.012;8.724;2023-01-19T04:11:27;98635.06;;;3.58;89.10
11223;BME280;5668;52.012;8.724;2023-01-19T04:13:55;98634.16;;;3.59;89.31
11223;BME280;5668;52.012;8.724;2023-01-19T04:16:22;98625.72;;;3.57;88.77
11223;BME280;5668;52.012;8.724;2023-01-19T04:18:50;98625.81;;;3.55;88.19
11223;BME280;5668;52.012;8.724;2023-01-19T04:21:18;98628.63;;;3.52;89.05
11223;BME280;5668;52.012;8.724;2023-01-19T04:23:46;98623.56;;;3.50;89.35
11223;BME280;5668;52.012;8.724;2023-01-19T04:26:15;98620.09;;;3.52;88.55
11223;BME280;5668;52.012;8.724;2023-01-19T04:28:42;98615.16;;;3.48;89.10
11223;BME280;5668;52.012;8.724;2023-01-19T04:31:09;98621.09;;;3.49;89.11
11223;BME280;5668;52.012;8.724;2023-01-19T04:33:36;98612.28;;;3.53;88.38
11223;BME280;5668;52.012;8.724;2023-01-19T04:36:05;98621.50;;;3.56;88.87
11223;BME280;5668;52.012;8.724;2023-01-19T04:38:33;98623.97;;;3.57;88.39
11223;BME280;5668;52.012;8.724;2023-01-19T04:41:01;98613.06;;;3.54;88.32
11223;BME280;5668;52.012;8.724;2023-01-19T04:43:28;98616.38;;;3.56;89.09
11223;BME280;5668;52.012;8.724;2023-01-19T04:45:55;98613.06;;;3.54;88.87
11223;BME280;5668;52.012;8.724;2023-01-19T04:48:22;98611.66;;;3.49;88.45
11223;BME280;5668;52.012;8.724;2023-01-19T04:50:50;98611.47;;;3.53;88.76
11223;BME280;5668;52.012;8.724;2023-01-19T04:53:20;98606.53;;;3.49;88.83
11223;BME280;5668;52.012;8.724;2023-01-19T04:55:51;98610.75;;;3.50;88.70
11223;BME280;5668;52.012;8.724;2023-01-19T04:58:18;98608.75;;;3.54;88.06
11223;BME280;5668;52.012;8.724;2023-01-19T05:00:45;98605.38;;;3.54;88.25
11223;BME280;5668;52.012;8.724;2023-01-19T05:03:13;98610.50;;;3.54;87.96
11223;BME280;5668;52.012;8.724;2023-01-19T05:05:40;98607.75;;;3.57;88.99
11223;BME280;5668;52.012;8.724;2023-01-19T05:08:07;98615.13;;;3.61;87.67
11223;BME280;5668;52.012;8.724;2023-01-19T05:10:36;98621.91;;;3.62;88.42
11223;BME280;5668;52.012;8.724;2023-01-19T05:13:03;98613.38;;;3.62;87.64
11223;BME280;5668;52.012;8.724;2023-01-19T05:15:30;98617.59;;;3.63;88.39
11223;BME280;5668;52.012;8.724;2023-01-19T05:17:57;98631.97;;;3.65;87.68
11223;BME280;5668;52.012;8.724;2023-01-19T05:20:25;98622.53;;;3.66;88.07
11223;BME280;5668;52.012;8.724;2023-01-19T05:22:52;98621.50;;;3.68;87.80
11223;BME280;5668;52.012;8.724;2023-01-19T05:25:19;98620.06;;;3.64;87.91
11223;BME280;5668;52.012;8.724;2023-01-19T05:27:48;98628.38;;;3.68;87.75
11223;BME280;5668;52.012;8.724;2023-01-19T05:30:16;98622.28;;;3.69;87.83
11223;BME280;5668;52.012;8.724;2023-01-19T05:32:43;98626.75;;;3.67;87.94
11223;BME280;5668;52.012;8.724;2023-01-19T05:35:10;98613.91;;;3.67;87.95
11223;BME280;5668;52.012;8.724;2023-01-19T05:37:38;98621.50;;;3.68;88.43
11223;BME280;5668;52.012;8.724;2023-01-19T05:40:08;98616.22;;;3.70;87.88
11223;BME280;5668;52.012;8.724;2023-01-19T05:42:39;98623.25;;;3.68;87.83
11223;BME280;5668;52.012;8.724;2023-01-19T05:45:09;98619.53;;;3.72;87.89
11223;BME280;5668;52.012;8.724;2023-01-19T05:47:37;98609.34;;;3.70;87.78
11223;BME280;5668;52.012;8.724;2023-01-19T05:50:07;98615.41;;;3.69;87.62
11223;BME280;5668;52.012;8.724;2023-01-19T05:52:37;98611.72;;;3.73;88.25
11223;BME280;5668;52.012;8.724;2023-01-19T05:55:05;98611.28;;;3.79;87.24
11223;BME280;5668;52.012;8.724;2023-01-19T05:57:32;98611.28;;;3.79;87.37
11223;BME280;5668;52.012;8.724;2023-01-19T06:00:00;98612.13;;;3.80;87.47
11223;BME280;5668;52.012;8.724;2023-01-19T06:02:28;98611.19;;;3.81;86.94
11223;BME280;5668;52.012;8.724;2023-01-19T06:04:55;98605.31;;;3.79;87.04
11223;BME280;5668;52.012;8.724;2023-01-19T06:07:23;98609.97;;;3.74;87.59
11223;BME280;5668;52.012;8.724;2023-01-19T06:09:51;98602.16;;;3.75;87.59
11223;BME280;5668;52.012;8.724;2023-01-19T06:12:18;98605.31;;;3.79;87.05
11223;BME280;5668;52.012;8.724;2023-01-19T06:14:45;98611.38;;;3.78;86.85
11223;BME280;5668;52.012;8.724;2023-01-19T06:17:12;98609.53;;;3.80;87.57
11223;BME280;5668;52.012;8.724;2023-01-19T06:19:41;98613.25;;;3.76;87.37
11223;BME280;5668;52.012;8.724;2023-01-19T06:22:08;98619.19;;;3.76;87.96
11223;BME280;5668;52.012;8.724;2023-01-19T06:24:35;98621.66;;;3.78;88.71
11223;BME280;5668;52.012;8.724;2023-01-19T06:27:03;98624.97;;;3.80;88.65
11223;BME280;5668;52.012;8.724;2023-01-19T06:29:31;98631.75;;;3.81;88.50
11223;BME280;5668;52.012;8.724;2023-01-19T06:31:58;98633.59;;;3.79;89.08
11223;BME280;5668;52.012;8.724;2023-01-19T06:34:25;98638.53;;;3.82;88.93
11223;BME280;5668;52.012;8.724;2023-01-19T06:36:55;98642.75;;;3.83;89.45
11223;BME280;5668;52.012;8.724;2023-01-19T06:39:22;98642.94;;;3.80;89.76
11223;BME280;5668;52.012;8.724;2023-01-19T06:41:49;98647.16;;;3.81;90.16
11223;BME280;5668;52.012;8.724;2023-01-19T06:44:16;98649.00;;;3.79;91.00
11223;BME280;5668;52.012;8.724;2023-01-19T06:46:44;98652.91;;;3.72;91.71
11223;BME280;5668;52.012;8.724;2023-01-19T06:49:11;98652.31;;;3.68;92.57
11223;BME280;5668;52.012;8.724;2023-01-19T06:51:38;98646.13;;;3.71;92.04
11223;BME280;5668;52.012;8.724;2023-01-19T06:54:07;98654.75;;;3.70;93.23
11223;BME280;5668;52.012;8.724;2023-01-19T06:56:34;98655.00;;;3.67;93.38
11223;BME280;5668;52.012;8.724;2023-01-19T06:59:01;98658.47;;;3.66;93.87
11223;BME280;5668;52.012;8.724;2023-01-19T07:01:28;98656.09;;;3.63;94.12
11223;BME280;5668;52.012;8.724;2023-01-19T07:03:55;98662.16;;;3.62;94.12
11223;BME280;5668;52.012;8.724;2023-01-19T07:06:23;98666.56;;;3.85;93.49
11223;BME280;5668;52.012;8.724;2023-01-19T07:08:50;98664.00;;;3.72;93.94
11223;BME280;5668;52.012;8.724;2023-01-19T07:11:18;98660.63;;;3.72;94.70
11223;BME280;5668;52.012;8.724;2023-01-19T07:13:45;98661.88;;;3.66;94.68
11223;BME280;5668;52.012;8.724;2023-01-19T07:16:16;98657.25;;;3.59;95.07
11223;BME280;5668;52.012;8.724;2023-01-19T07:18:44;98676.34;;;3.55;94.78
11223;BME280;5668;52.012;8.724;2023-01-19T07:21:14;98677.06;;;3.57;95.62
11223;BME280;5668;52.012;8.724;2023-01-19T07:23:41;98674.50;;;3.57;96.12
11223;BME280;5668;52.012;8.724;2023-01-19T07:26:09;98664.66;;;3.50;95.81
11223;BME280;5668;52.012;8.724;2023-01-19T07:28:38;98674.09;;;3.50;95.57
11223;BME280;5668;52.012;8.724;2023-01-19T07:31:07;98684.97;;;3.54;95.83
11223;BME280;5668;52.012;8.724;2023-01-19T07:33:34;98680.25;;;3.47;96.36
11223;BME280;5668;52.012;8.724;2023-01-19T07:36:02;98692.19;;;3.48;96.00
11223;BME280;5668;52.012;8.724;2023-01-19T07:38:29;98690.53;;;3.47;96.71
11223;BME280;5668;52.012;8.724;2023-01-19T07:40:59;98685.63;;;3.44;96.33
11223;BME280;5668;52.012;8.724;2023-01-19T07:43:27;98694.44;;;3.40;97.10
11223;BME280;5668;52.012;8.724;2023-01-19T07:45:57;98704.91;;;3.37;97.12
11223;BME280;5668;52.012;8.724;2023-01-19T07:48:24;98699.56;;;3.40;97.21
11223;BME280;5668;52.012;8.724;2023-01-19T07:50:52;98707.50;;;3.37;97.23
11223;BME280;5668;52.012;8.724;2023-01-19T07:53:19;98709.09;;;3.38;97.99
11223;BME280;5668;52.012;8.724;2023-01-19T07:55:53;98704.19;;;3.35;98.10
11223;BME280;5668;52.012;8.724;2023-01-19T07:58:21;98715.47;;;3.33;97.92
11223;BME280;5668;52.012;8.724;2023-01-19T08:00:48;98722.16;;;3.35;98.71
11223;BME280;5668;52.012;8.724;2023-01-19T08:03:17;98727.28;;;3.35;98.22
11223;BME280;5668;52.012;8.724;2023-01-19T08:05:47;98727.47;;;3.32;98.20
11223;BME280;5668;52.012;8.724;2023-01-19T08:08:15;98730.78;;;3.34;98.71
11223;BME280;5668;52.012;8.724;2023-01-19T08:10:43;98731.50;;;3.36;98.79
11223;BME280;5668;52.012;8.724;2023-01-19T08:13:11;98735.72;;;3.37;99.18
11223;BME280;5668;52.012;8.724;2023-01-19T08:15:38;98740.63;;;3.40;99.06
11223;BME280;5668;52.012;8.724;2023-01-19T08:18:05;98740.63;;;3.40;98.45
11223;BME280;5668;52.012;8.724;2023-01-19T08:20:36;98743.75;;;3.45;98.27
11223;BME280;5668;52.012;8.724;2023-01-19T08:23:03;98746.41;;;3.44;97.75
11223;BME280;5668;52.012;8.724;2023-01-19T08:25:34;98748.88;;;3.45;98.06
11223;BME280;5668;52.012;8.724;2023-01-19T08:28:03;98757.28;;;3.47;97.91
11223;BME280;5668;52.012;8.724;2023-01-19T08:30:30;98756.47;;;3.47;97.61
11223;BME280;5668;52.012;8.724;2023-01-19T08:32:57;98767.56;;;3.47;97.82
11223;BME280;5668;52.012;8.724;2023-01-19T08:35:29;98757.28;;;3.47;97.59
11223;BME280;5668;52.012;8.724;2023-01-19T08:37:58;98765.31;;;3.43;97.80
11223;BME280;5668;52.012;8.724;2023-01-19T08:40:27;98756.03;;;3.40;98.42
11223;BME280;5668;52.012;8.724;2023-01-19T08:42:57;98772.28;;;3.41;98.61
11223;BME280;5668;52.012;8.724;2023-01-19T08:45:28;98772.28;;;3.41;98.81
11223;BME280;5668;52.012;8.724;2023-01-19T08:47:56;98773.91;;;3.42;98.52
11223;BME280;5668;52.012;8.724;2023-01-19T08:50:24;98777.13;;;3.45;99.14
11223;BME280;5668;52.012;8.724;2023-01-19T08:52:51;98772.91;;;3.44;98.86
11223;BME280;5668;52.012;8.724;2023-01-19T08:55:19;98782.25;;;3.45;98.95
11223;BME280;5668;52.012;8.724;2023-01-19T08:57:50;98783.88;;;3.46;98.92
11223;BME280;5668;52.012;8.724;2023-01-19T09:00:18;98784.84;;;3.45;99.17
11223;BME280;5668;52.012;8.724;2023-01-19T09:02:46;98791.50;;;3.48;98.90
11223;BME280;5668;52.012;8.724;2023-01-19T09:05:14;98792.22;;;3.50;99.06
11223;BME280;5668;52.012;8.724;2023-01-19T09:07:42;98796.34;;;3.53;99.22
11223;BME280;5668;52.012;8.724;2023-01-19T09:10:11;98797.97;;;3.54;98.52
11223;BME280;5668;52.012;8.724;2023-01-19T09:12:41;98805.47;;;3.57;99.05
11223;BME280;5668;52.012;8.724;2023-01-19T09:15:10;98805.38;;;3.58;98.57
11223;BME280;5668;52.012;8.724;2023-01-19T09:17:38;98807.13;;;3.58;99.13
11223;BME280;5668;52.012;8.724;2023-01-19T09:20:08;98817.91;;;3.63;98.83
11223;BME280;5668;52.012;8.724;2023-01-19T09:22:36;98819.56;;;3.64;98.05
11223;BME280;5668;52.012;8.724;2023-01-19T09:25:05;98826.34;;;3.65;98.43
11223;BME280;5668;52.012;8.724;2023-01-19T09:27:32;98829.75;;;3.65;98.51
11223;BME280;5668;52.012;8.724;2023-01-19T09:30:01;98842.38;;;3.68;98.10
11223;BME280;5668;52.012;8.724;2023-01-19T09:32:28;98838.03;;;3.69;98.02
11223;BME280;5668;52.012;8.724;2023-01-19T09:34:55;98840.44;;;3.72;97.59
11223;BME280;5668;52.012;8.724;2023-01-19T09:37:23;98836.94;;;3.73;97.66
11223;BME280;5668;52.012;8.724;2023-01-19T09:39:50;98846.06;;;3.77;96.95
11223;BME280;5668;52.012;8.724;2023-01-19T09:42:21;98843.31;;;3.80;97.51
11223;BME280;5668;52.012;8.724;2023-01-19T09:44:50;98844.25;;;3.79;96.97
11223;BME280;5668;52.012;8.724;2023-01-19T09:47:23;98840.94;;;3.77;97.43
11223;BME280;5668;52.012;8.724;2023-01-19T09:49:55;98847.81;;;3.76;96.63
11223;BME280;5668;52.012;8.724;2023-01-19T09:52:24;98854.91;;;3.73;97.16
11223;BME280;5668;52.012;8.724;2023-01-19T09:54:53;98849.59;;;3.76;97.13
11223;BME280;5668;52.012;8.724;2023-01-19T09:57:21;98851.22;;;3.77;96.86
11223;BME280;5668;52.012;8.724;2023-01-19T09:59:50;98853.69;;;3.78;97.22
11223;BME280;5668;52.012;8.724;2023-01-19T10:02:31;98864.59;;;3.82;96.31
11223;BME280;5668;52.012;8.724;2023-01-19T10:05:02;98861.31;;;3.80;96.88
11223;BME280;5668;52.012;8.724;2023-01-19T10:07:55;98869.94;;;3.79;96.48
11223;BME280;5668;52.012;8.724;2023-01-19T10:10:29;98876.91;;;3.77;96.50
11223;BME280;5668;52.012;8.724;2023-01-19T10:13:20;98874.25;;;3.78;96.43
11223;BME280;5668;52.012;8.724;2023-01-19T10:16:01;98880.44;;;3.76;97.03
11223;BME280;5668;52.012;8.724;2023-01-19T10:18:43;98879.47;;;3.77;97.87
11223;BME280;5668;52.012;8.724;2023-01-19T10:21:15;98878.78;;;3.75;97.26
11223;BME280;5668;52.012;8.724;2023-01-19T10:23:45;98882.88;;;3.77;97.42
11223;BME280;5668;52.012;8.724;2023-01-19T10:26:16;98888.81;;;3.78;97.86
11223;BME280;5668;52.012;8.724;2023-01-19T10:28:46;98893.78;;;3.81;98.21
11223;BME280;5668;52.012;8.724;2023-01-19T10:31:17;98887.81;;;3.80;98.65
11223;BME280;5668;52.012;8.724;2023-01-19T10:33:48;98883.50;;;3.81;98.58
11223;BME280;5668;52.012;8.724;2023-01-19T10:36:17;98889.66;;;3.78;98.42
11223;BME280;5668;52.012;8.724;2023-01-19T10:38:45;98889.75;;;3.77;98.13
11223;BME280;5668;52.012;8.724;2023-01-19T10:41:17;98896.53;;;3.78;97.30
11223;BME280;5668;52.012;8.724;2023-01-19T10:43:45;98897.28;;;3.80;97.59
11223;BME280;5668;52.012;8.724;2023-01-19T10:46:20;98898.69;;;3.84;98.12
11223;BME280;5668;52.012;8.724;2023-01-19T10:48:50;98900.34;;;3.85;97.49
11223;BME280;5668;52.012;8.724;2023-01-19T10:51:20;98900.34;;;3.85;97.79
11223;BME280;5668;52.012;8.724;2023-01-19T10:53:57;98905.72;;;3.82;96.69
11223;BME280;5668;52.012;8.724;2023-01-19T10:56:29;98907.34;;;3.83;97.41
11223;BME280;5668;52.012;8.724;2023-01-19T10:58:59;98915.75;;;3.85;96.66
11223;BME280;5668;52.012;8.724;2023-01-19T11:01:28;98915.88;;;3.83;96.83
11223;BME280;5668;52.012;8.724;2023-01-19T11:03:57;98915.75;;;3.85;96.66
11223;BME280;5668;52.012;8.724;2023-01-19T11:06:31;98915.06;;;3.83;96.90
11223;BME280;5668;52.012;8.724;2023-01-19T11:09:16;98919.38;;;3.82;97.23
11223;BME280;5668;52.012;8.724;2023-01-19T11:11:46;98919.25;;;3.84;97.45
11223;BME280;5668;52.012;8.724;2023-01-19T11:14:17;98921.81;;;3.84;96.97
11223;BME280;5668;52.012;8.724;2023-01-19T11:16:47;98924.41;;;3.84;97.33
11223;BME280;5668;52.012;8.724;2023-01-19T11:19:22;98922.78;;;3.83;97.24
11223;BME280;5668;52.012;8.724;2023-01-19T11:21:51;98921.13;;;3.82;97.08
11223;BME280;5668;52.012;8.724;2023-01-19T11:24:18;98928.00;;;3.81;97.61
11223;BME280;5668;52.012;8.724;2023-01-19T11:26:47;98927.09;;;3.82;97.08
11223;BME280;5668;52.012;8.724;2023-01-19T11:29:17;98932.94;;;3.84;97.45
11223;BME280;5668;52.012;8.724;2023-01-19T11:31:46;98932.09;;;3.84;97.44
11223;BME280;5668;52.012;8.724;2023-01-19T11:34:32;98931.19;;;3.85;97.04
11223;BME280;5668;52.012;8.724;2023-01-19T11:37:01;98934.66;;;3.84;97.06
11223;BME280;5668;52.012;8.724;2023-01-19T11:39:30;98929.53;;;3.84;97.76
11223;BME280;5668;52.012;8.724;2023-01-19T11:42:01;98936.31;;;3.85;98.12
11223;BME280;5668;52.012;8.724;2023-01-19T11:44:31;98937.97;;;3.86;97.74
11223;BME280;5668;52.012;8.724;2023-01-19T11:47:01;98937.16;;;3.85;97.72
11223;BME280;5668;52.012;8.724;2023-01-19T11:49:37;98937.78;;;3.89;98.57
11223;BME280;5668;52.012;8.724;2023-01-19T11:52:15;98945.41;;;3.91;98.11
11223;BME280;5668;52.012;8.724;2023-01-19T11:54:48;98943.63;;;3.91;98.47
11223;BME280;5668;52.012;8.724;2023-01-19T11:57:20;98935.91;;;3.91;98.82
11223;BME280;5668;52.012;8.724;2023-01-19T11:59:47;98945.41;;;3.91;98.71
11223;BME280;5668;52.012;8.724;2023-01-19T12:02:25;98948.69;;;3.93;98.88
11223;BME280;5668;52.012;8.724;2023-01-19T12:04:58;98954.63;;;3.93;99.40
11223;BME280;5668;52.012;8.724;2023-01-19T12:07:29;98950.22;;;3.95;99.55
11223;BME280;5668;52.012;8.724;2023-01-19T12:10:12;98955.28;;;3.97;99.72
11223;BME280;5668;52.012;8.724;2023-01-19T12:12:43;98962.06;;;3.98;99.39
11223;BME280;5668;52.012;8.724;2023-01-19T12:15:19;98953.41;;;3.99;99.85
11223;BME280;5668;52.012;8.724;2023-01-19T12:17:52;98959.38;;;3.99;99.49
11223;BME280;5668;52.012;8.724;2023-01-19T12:20:27;98956.72;;;4.01;100.00
11223;BME280;5668;52.012;8.724;2023-01-19T12:23:03;98959.19;;;4.02;100.00
11223;BME280;5668;52.012;8.724;2023-01-19T12:25:44;98959.09;;;4.04;100.00
11223;BME280;5668;52.012;8.724;2023-01-19T12:28:15;98965.06;;;4.04;100.00
11223;BME280;5668;52.012;8.724;2023-01-19T12:30:43;98970.91;;;4.06;100.00
11223;BME280;5668;52.012;8.724;2023-01-19T12:33:21;98973.38;;;4.08;100.00
11223;BME280;5668;52.012;8.724;2023-01-19T12:35:57;98973.47;;;4.06;100.00
11223;BME280;5668;52.012;8.724;2023-01-19T12:38:46;98976.88;;;4.07;100.00
11223;BME280;5668;52.012;8.724;2023-01-19T12:41:16;98978.63;;;4.06;100.00
11223;BME280;5668;52.012;8.724;2023-01-19T12:43:44;98974.22;;;4.08;100.00
11223;BME280;5668;52.012;8.724;2023-01-19T12:46:19;98978.44;;;4.09;100.00
11223;BME280;5668;52.012;8.724;2023-01-19T12:48:49;98982.66;;;4.10;100.00
11223;BME280;5668;52.012;8.724;2023-01-19T12:51:23;98990.28;;;4.12;100.00
11223;BME280;5668;52.012;8.724;2023-01-19T12:53:53;98982.56;;;4.12;99.93
11223;BME280;5668;52.012;8.724;2023-01-19T12:56:27;98989.22;;;4.14;100.00
11223;BME280;5668;52.012;8.724;2023-01-19T12:58:56;98998.69;;;4.14;99.90
11223;BME280;5668;52.012;8.724;2023-01-19T13:01:23;98992.75;;;4.13;100.00
11223;BME280;5668;52.012;8.724;2023-01-19T13:04:00;98996.03;;;4.15;99.68
11223;BME280;5668;52.012;8.724;2023-01-19T13:09:37;99001.97;;;4.16;99.78
11223;BME280;5668;52.012;8.724;2023-01-19T13:12:19;99008.78;;;4.17;99.76
11223;BME280;5668;52.012;8.724;2023-01-19T13:14:47;99013.81;;;4.18;99.75
11223;BME280;5668;52.012;8.724;2023-01-19T13:17:33;99018.06;;;4.19;99.61
11223;BME280;5668;52.012;8.724;2023-01-19T13:20:23;99014.44;;;4.22;99.71
11223;BME280;5668;52.012;8.724;2023-01-19T13:23:20;99021.13;;;4.24;100.00
11223;BME280;5668;52.012;8.724;2023-01-19T13:25:52;99017.66;;;4.25;99.72
11223;BME280;5668;52.012;8.724;2023-01-19T13:28:25;99034.50;;;4.29;100.00
11223;BME280;5668;52.012;8.724;2023-01-19T13:30:57;99027.53;;;4.32;99.66
11223;BME280;5668;52.012;8.724;2023-01-19T13:33:27;99034.22;;;4.34;99.77
11223;BME280;5668;52.012;8.724;2023-01-19T13:35:57;99031.66;;;4.34;100.00
11223;BME280;5668;52.012;8.724;2023-01-19T13:38:26;99029.00;;;4.36;99.78
11223;BME280;5668;52.012;8.724;2023-01-19T13:40:56;99017.88;;;4.35;100.00